Time;durP1;ratioP1;P1;durP2;ratioP2;P2;SDS_P1;SDS_P2;PMS_P1;PMS_P2;Temp;Humidity;BMP_temperature;BMP_pressure;BME280_temperature;BME280_humidity;BME280_pressure;Samples;Min_cycle;Max_cycle;Signal;HPM_P1;HPM_P2
2022/06/20 00:02:14;;;;;;;19.75;4.15;;;;;;;14.11;100.00;101195.53;5051025;28;20092;-63
2022/06/20 00:04:39;;;;;;;18.95;4.57;;;;;;;14.11;100.00;101200.84;5054925;28;20079;-62
2022/06/20 00:07:04;;;;;;;20.92;4.38;;;;;;;14.01;100.00;101202.69;5055163;28;20025;-62
2022/06/20 00:09:30;;;;;;;21.80;4.55;;;;;;;13.95;100.00;101195.59;5054843;28;20024;-62
2022/06/20 00:11:55;;;;;;;21.13;4.40;;;;;;;13.85;100.00;101190.31;5055172;28;20029;-62
2022/06/20 00:14:21;;;;;;;19.92;4.13;;;;;;;13.80;100.00;101187.69;5055381;28;20029;-62
2022/06/20 00:16:47;;;;;;;20.02;4.50;;;;;;;13.86;100.00;101200.06;5054810;28;20028;-62
2022/06/20 00:19:14;;;;;;;18.27;4.10;;;;;;;13.80;100.00;101205.41;5055077;28;20094;-63
2022/06/20 00:21:39;;;;;;;23.08;4.50;;;;;;;13.77;100.00;101219.56;5055251;28;20029;-63
2022/06/20 00:24:05;;;;;;;17.17;3.97;;;;;;;13.80;100.00;101214.25;5054947;28;20091;-63
2022/06/20 00:26:31;;;;;;;19.05;4.20;;;;;;;13.82;100.00;101239.06;5054558;28;20083;-64
2022/06/20 00:28:56;;;;;;;17.15;3.88;;;;;;;13.82;100.00;101264.72;5055084;28;20120;-64
2022/06/20 00:31:22;;;;;;;16.70;4.00;;;;;;;13.92;100.00;101263.81;5054501;28;20380;-64
2022/06/20 00:33:48;;;;;;;18.05;3.88;;;;;;;13.81;100.00;101258.53;5054434;28;20043;-63
2022/06/20 00:36:14;;;;;;;20.55;4.40;;;;;;;13.83;100.00;101283.31;5054945;28;20472;-65
2022/06/20 00:38:42;;;;;;;16.42;3.60;;;;;;;13.86;100.00;101298.38;5053224;28;20021;-64
2022/06/20 00:41:15;;;;;;;18.65;4.00;;;;;;;13.79;100.00;101316.13;5054221;28;20460;-64
2022/06/20 00:43:46;;;;;;;19.75;4.13;;;;;;;13.85;100.00;101329.41;5054514;28;20495;-63
2022/06/20 00:46:20;;;;;;;18.92;3.88;;;;;;;13.81;100.00;101348.88;5054029;28;20056;-63
2022/06/20 00:48:50;;;;;;;19.65;4.18;;;;;;;13.68;100.00;101390.50;5054215;28;20029;-64
2022/06/20 00:51:31;;;;;;;19.60;4.10;;;;;;;13.41;100.00;101420.56;5054079;28;20024;-62
2022/06/20 00:54:16;;;;;;;20.13;3.97;;;;;;;13.12;100.00;101453.25;5050045;28;20036;-63
2022/06/20 00:57:10;;;;;;;17.17;3.95;;;;;;;13.03;100.00;101464.72;5054099;28;20035;-63
2022/06/20 00:59:41;;;;;;;20.38;4.30;;;;;;;13.06;100.00;101435.53;5052240;28;20052;-62
2022/06/20 01:02:06;;;;;;;17.90;3.97;;;;;;;13.10;100.00;101412.50;5053992;28;20083;-62
2022/06/20 01:04:51;;;;;;;17.88;3.67;;;;;;;13.25;100.00;101393.06;5053891;28;20476;-64
2022/06/20 01:07:32;;;;;;;19.95;4.03;;;;;;;13.39;100.00;101378.09;5050326;28;20036;-62
2022/06/20 01:09:59;;;;;;;17.10;3.67;;;;;;;13.55;100.00;101376.34;5051663;28;20029;-63
2022/06/20 01:12:29;;;;;;;20.77;4.35;;;;;;;13.65;100.00;101368.38;5053552;28;20029;-63
2022/06/20 01:14:55;;;;;;;18.50;3.83;;;;;;;13.76;100.00;101358.63;5053880;28;20029;-62
2022/06/20 01:17:37;;;;;;;19.38;3.97;;;;;;;13.78;100.00;101348.88;5053731;28;20118;-62
2022/06/20 01:20:17;;;;;;;19.10;4.10;;;;;;;13.84;100.00;101351.53;5053915;28;20021;-63
2022/06/20 01:22:42;;;;;;;18.95;4.30;;;;;;;13.83;100.00;101333.81;5053492;28;20746;-63
2022/06/20 01:25:26;;;;;;;18.52;4.28;;;;;;;13.84;100.00;101329.41;5053281;28;20032;-63
2022/06/20 01:27:52;;;;;;;17.55;4.10;;;;;;;13.79;100.00;101313.47;5050935;28;20057;-63
2022/06/20 01:30:19;;;;;;;19.38;4.25;;;;;;;13.66;100.00;101296.66;5053869;28;20025;-63
2022/06/20 01:32:45;;;;;;;21.05;4.32;;;;;;;13.57;100.00;101297.56;5049409;28;20025;-62
2022/06/20 01:37:23;;;;;;;19.83;4.40;;;;;;;13.54;100.00;101297.56;5053599;28;20021;-63
2022/06/20 01:38:00;;;;;;;19.80;4.30;;;;;;;13.42;100.00;101297.53;5053196;28;20033;-63
2022/06/20 01:40:27;;;;;;;19.27;4.22;;;;;;;13.36;100.00;101290.47;5053350;28;20021;-62
2022/06/20 01:42:53;;;;;;;18.25;4.05;;;;;;;13.25;100.00;101284.22;5053301;28;20029;-63
2022/06/20 01:48:09;;;;;;;18.02;4.18;;;;;;;13.30;100.00;101265.66;5053341;28;20063;-62
2022/06/20 01:50:36;;;;;;;19.48;4.13;;;;;;;13.25;100.00;101274.50;5053281;28;20104;-63
2022/06/20 01:53:05;;;;;;;20.38;4.25;;;;;;;13.28;100.00;101275.38;5053314;28;20100;-62
2022/06/20 01:55:33;;;;;;;19.05;4.13;;;;;;;13.18;100.00;101264.78;5050949;28;20028;-62
2022/06/20 01:58:13;;;;;;;18.58;4.00;;;;;;;13.24;100.00;101270.09;5053445;28;20056;-63
2022/06/20 02:00:39;;;;;;;16.95;4.05;;;;;;;13.28;100.00;101259.44;5049276;28;20500;-63
2022/06/20 02:03:08;;;;;;;17.33;4.00;;;;;;;13.25;100.00;101261.25;5049314;28;20121;-62
2022/06/20 02:05:34;;;;;;;18.67;4.10;;;;;;;13.24;100.00;101259.47;5048827;28;20704;-63
2022/06/20 02:08:03;;;;;;;19.15;4.20;;;;;;;13.20;100.00;101251.50;5052883;28;20024;-62
2022/06/20 02:10:37;;;;;;;19.63;4.43;;;;;;;13.21;100.00;101238.22;5052823;28;20033;-63
2022/06/20 02:13:03;;;;;;;15.82;4.15;;;;;;;13.14;100.00;101232.94;5048843;28;20028;-62
2022/06/20 02:15:32;;;;;;;18.77;4.47;;;;;;;13.12;100.00;101232.03;5052998;28;20021;-62
2022/06/20 02:18:01;;;;;;;18.50;4.32;;;;;;;13.10;100.00;101229.38;5053152;28;20021;-62
2022/06/20 02:20:30;;;;;;;18.48;4.10;;;;;;;13.04;100.00;101222.28;5052915;28;20033;-63
2022/06/20 02:22:57;;;;;;;19.85;4.40;;;;;;;13.06;100.00;101212.56;5052897;28;20096;-63
2022/06/20 02:25:29;;;;;;;17.58;4.10;;;;;;;13.06;100.00;101211.69;5052605;28;20472;-63
2022/06/20 02:28:01;;;;;;;18.33;4.10;;;;;;;12.99;100.00;101208.16;5052489;28;20391;-62
2022/06/20 02:30:29;;;;;;;20.15;4.00;;;;;;;12.98;100.00;101217.00;5052790;28;20060;-62
2022/06/20 02:33:02;;;;;;;19.20;3.92;;;;;;;12.95;100.00;101211.69;5052536;28;20025;-62
2022/06/20 02:35:29;;;;;;;17.05;4.10;;;;;;;12.98;100.00;101208.16;5052661;28;20029;-62
2022/06/20 02:37:54;;;;;;;18.10;4.07;;;;;;;13.01;100.00;101210.81;5052370;28;20029;-62
2022/06/20 02:40:24;;;;;;;19.35;4.10;;;;;;;12.96;100.00;101212.56;5052379;28;20063;-63
2022/06/20 02:42:56;;;;;;;18.23;4.07;;;;;;;12.95;100.00;101211.69;5052555;28;20021;-62
2022/06/20 02:45:22;;;;;;;19.35;4.15;;;;;;;12.95;100.00;101210.81;5052100;28;20053;-63
2022/06/20 02:47:52;;;;;;;20.63;4.00;;;;;;;12.89;100.00;101204.59;5052675;28;20028;-61
2022/06/20 02:50:28;;;;;;;16.70;3.95;;;;;;;12.87;100.00;101195.78;5052693;28;20032;-62
2022/06/20 02:53:02;;;;;;;16.63;3.72;;;;;;;12.86;100.00;101191.34;5052728;28;20025;-62
2022/06/20 02:55:29;;;;;;;18.77;3.95;;;;;;;12.86;100.00;101180.72;5051998;28;20090;-62
2022/06/20 02:58:00;;;;;;;17.50;3.80;;;;;;;12.83;100.00;101172.78;5052227;28;20029;-63
2022/06/20 03:00:35;;;;;;;19.50;3.70;;;;;;;12.76;100.00;101165.69;5052444;28;20464;-63
2022/06/20 03:03:06;;;;;;;18.17;3.80;;;;;;;12.73;100.00;101155.09;5051661;28;20025;-62
2022/06/20 03:05:31;;;;;;;17.95;3.80;;;;;;;12.69;100.00;101150.66;5052068;28;20039;-62
2022/06/20 03:07:57;;;;;;;16.15;3.63;;;;;;;12.69;100.00;101162.13;5052121;28;20029;-62
2022/06/20 03:10:38;;;;;;;16.75;3.58;;;;;;;12.74;100.00;101159.47;5048189;28;20029;-62
2022/06/20 03:13:04;;;;;;;17.83;3.90;;;;;;;12.71;100.00;101170.09;5049984;28;20106;-62
2022/06/20 03:15:30;;;;;;;15.23;3.70;;;;;;;12.71;100.00;101165.69;5052158;28;20043;-63
2022/06/20 03:17:57;;;;;;;17.73;3.80;;;;;;;12.71;100.00;101175.41;5053470;28;20025;-62
2022/06/20 03:20:25;;;;;;;18.55;3.65;;;;;;;12.74;100.00;101175.41;5056455;28;20353;-62
2022/06/20 03:23:07;;;;;;;17.92;3.60;;;;;;;12.70;100.00;101185.13;5056055;28;20044;-62
2022/06/20 03:25:35;;;;;;;16.60;3.80;;;;;;;12.73;100.00;101190.44;5053276;28;20048;-62
2022/06/20 03:28:01;;;;;;;15.68;4.05;;;;;;;12.72;100.00;101195.75;5055720;28;20569;-62
2022/06/20 03:30:35;;;;;;;16.75;3.80;;;;;;;12.67;100.00;101202.84;5055915;28;20028;-62
2022/06/20 03:33:04;;;;;;;14.93;3.17;;;;;;;12.67;100.00;101192.22;5051982;28;20025;-62
2022/06/20 03:35:31;;;;;;;15.13;3.60;;;;;;;12.65;100.00;101194.84;5055452;28;20075;-62
2022/06/20 03:38:02;;;;;;;18.60;3.75;;;;;;;12.59;100.00;101201.94;5055715;28;20029;-62
2022/06/20 03:40:28;;;;;;;14.90;3.50;;;;;;;12.67;100.00;101210.78;5055679;28;20057;-62
2022/06/20 03:42:57;;;;;;;15.82;3.78;;;;;;;12.69;100.00;101219.63;5055552;28;20102;-63
2022/06/20 03:45:28;;;;;;;17.33;3.50;;;;;;;12.75;100.00;101230.22;5055244;28;20514;-63
2022/06/20 03:48:01;;;;;;;18.42;3.88;;;;;;;12.82;100.00;101242.63;5055510;28;20035;-62
2022/06/20 03:50:38;;;;;;;19.10;3.75;;;;;;;12.90;100.00;101256.78;5055604;28;20025;-62
2022/06/20 03:53:10;;;;;;;18.33;4.03;;;;;;;12.92;100.00;101259.44;5055311;28;20032;-62
2022/06/20 03:55:44;;;;;;;18.35;3.85;;;;;;;12.92;100.00;101262.09;5055594;28;20064;-62
2022/06/20 03:58:17;;;;;;;16.83;3.80;;;;;;;12.97;100.00;101267.41;5055337;28;20048;-62
2022/06/20 04:00:42;;;;;;;;;;;;;;;13.05;100.00;101260.34;5055892;28;20025;-62
2022/06/20 04:03:18;;;;;;;17.77;3.90;;;;;;;12.99;100.00;101260.31;5055233;28;20437;-62
2022/06/20 04:06:27;;;;;;;15.50;3.50;;;;;;;13.03;100.00;101262.09;5051057;28;20338;-62
2022/06/20 04:12:01;;;;;;;17.17;3.63;;;;;;;13.12;100.00;101267.44;5055419;28;20044;-62
2022/06/20 04:14:49;;;;;;;16.92;3.80;;;;;;;13.16;100.00;101268.31;5052831;28;20059;-63
2022/06/20 04:20:39;;;;;;;18.25;3.72;;;;;;;13.08;100.00;101281.59;5054967;28;20106;-63
2022/06/20 04:23:12;;;;;;;17.33;3.97;;;;;;;13.07;100.00;101290.41;5053617;28;20511;-62
2022/06/20 04:25:45;;;;;;;18.02;4.00;;;;;;;13.06;100.00;101288.63;5054593;28;20463;-62
2022/06/20 04:28:15;;;;;;;;;;;;;;;13.15;100.00;101293.97;5055485;28;20025;-62
2022/06/20 04:30:54;;;;;;;16.67;3.78;;;;;;;13.07;100.00;101291.28;5054567;28;20438;-62
2022/06/20 04:33:30;;;;;;;20.58;3.60;;;;;;;13.13;100.00;101300.16;5051079;28;20029;-62
2022/06/20 04:36:30;;;;;;;17.58;3.70;;;;;;;13.18;100.00;101299.28;5054572;28;20021;-62
2022/06/20 04:39:14;;;;;;;17.50;3.45;;;;;;;13.13;100.00;101300.16;5051096;28;20436;-62
2022/06/20 04:42:07;;;;;;;17.08;3.70;;;;;;;13.22;100.00;101306.38;5054720;28;20025;-62
2022/06/20 04:45:02;;;;;;;17.13;3.80;;;;;;;13.31;100.00;101300.19;5026886;28;20160;-62
2022/06/20 04:47:37;;;;;;;17.27;3.88;;;;;;;13.42;100.00;101306.38;5032359;28;20044;-62
2022/06/20 04:50:04;;;;;;;16.17;3.47;;;;;;;13.46;100.00;101309.06;5032047;28;20128;-62
2022/06/20 04:52:31;;;;;;;17.60;4.22;;;;;;;13.59;100.00;101324.13;5032143;28;20033;-62
2022/06/20 04:54:57;;;;;;;18.30;3.70;;;;;;;13.68;100.00;101316.13;5032307;28;20073;-62
2022/06/20 04:57:29;;;;;;;14.90;3.38;;;;;;;13.80;100.00;101335.59;5031934;28;20380;-62
2022/06/20 04:59:58;;;;;;;17.23;3.47;;;;;;;13.86;100.00;101323.19;5032036;28;20025;-64
2022/06/20 05:02:25;;;;;;;18.42;3.60;;;;;;;13.94;100.00;101331.16;5031737;28;20106;-63
2022/06/20 05:04:54;;;;;;;13.52;3.40;;;;;;;14.07;100.00;101324.03;5032052;28;20060;-64
2022/06/20 05:07:29;;;;;;;15.52;3.70;;;;;;;14.17;100.00;101324.88;5031740;28;20551;-63
2022/06/20 05:10:02;;;;;;;17.38;4.00;;;;;;;14.20;100.00;101323.13;5031778;28;20083;-65
2022/06/20 05:12:37;;;;;;;16.48;3.88;;;;;;;14.22;100.00;101331.97;5031642;28;20095;-63
2022/06/20 05:15:15;;;;;;;18.77;4.30;;;;;;;14.24;100.00;101327.53;5031856;28;20042;-64
2022/06/20 05:17:43;;;;;;;20.52;4.53;;;;;;;14.25;100.00;101331.94;5031952;28;20542;-64
2022/06/20 05:20:21;;;;;;;20.08;4.55;;;;;;;14.28;100.00;101329.31;5031521;28;20040;-63
2022/06/20 05:23:12;;;;;;;17.90;4.60;;;;;;;14.28;100.00;101334.63;5053535;28;20025;-64
2022/06/20 05:25:39;;;;;;;19.30;4.60;;;;;;;14.31;100.00;101341.69;5048291;28;20438;-63
2022/06/20 05:28:12;;;;;;;17.20;4.40;;;;;;;14.28;100.00;101355.91;5049549;28;20067;-63
2022/06/20 05:30:41;;;;;;;21.30;4.95;;;;;;;14.26;100.00;101357.66;5051447;28;20028;-65
2022/06/20 05:33:24;;;;;;;18.50;4.70;;;;;;;14.28;100.00;101350.56;5051589;28;20119;-64
2022/06/20 05:35:57;;;;;;;18.13;4.00;;;;;;;14.30;100.00;101331.97;5050380;28;20033;-65
2022/06/20 05:38:26;;;;;;;;;;;;;;;14.45;100.00;101339.00;5051923;28;20033;-66
2022/06/20 05:40:55;;;;;;;18.08;4.30;;;;;;;14.42;100.00;101333.69;5050683;28;19916;-64
2022/06/20 05:43:21;;;;;;;17.50;4.30;;;;;;;14.45;100.00;101318.59;5050863;28;20074;-65
2022/06/20 05:45:55;;;;;;;18.42;4.13;;;;;;;14.48;100.00;101329.19;5051523;28;20053;-65
2022/06/20 05:48:30;;;;;;;19.02;4.30;;;;;;;14.46;100.00;101331.00;5050541;28;20044;-66
2022/06/20 05:50:59;;;;;;;16.35;4.47;;;;;;;14.51;100.00;101328.31;5051961;28;20033;-65
2022/06/20 05:53:48;;;;;;;20.40;4.40;;;;;;;14.53;100.00;101325.66;5051080;28;20043;-67
2022/06/20 05:56:34;;;;;;;16.80;3.90;;;;;;;14.55;100.00;101340.72;5051201;28;20054;-65
2022/06/20 05:59:00;;;;;;;18.52;4.35;;;;;;;14.67;100.00;101346.91;5051150;28;20021;-65
2022/06/20 06:01:33;;;;;;;18.77;3.80;;;;;;;14.78;100.00;101342.41;5049544;28;20086;-66
2022/06/20 06:04:26;;;;;;;17.60;3.75;;;;;;;14.81;100.00;101353.06;5050983;28;20051;-64
2022/06/20 06:07:05;;;;;;;;;;;;;;;14.96;100.00;101347.63;5050615;28;20044;-64
2022/06/20 06:09:50;;;;;;;15.63;3.58;;;;;;;15.05;100.00;101357.34;5050972;28;20007;-65
2022/06/20 06:12:23;;;;;;;16.65;3.80;;;;;;;15.16;100.00;101355.50;5008583;28;20512;-64
2022/06/20 06:15:02;;;;;;;16.20;3.58;;;;;;;15.21;100.00;101352.81;5008421;28;20033;-64
2022/06/20 06:17:40;;;;;;;18.13;3.88;;;;;;;15.28;100.00;101353.66;5006180;28;20072;-65
2022/06/20 06:20:19;;;;;;;16.48;3.85;;;;;;;15.41;100.00;101346.47;5006096;28;20061;-66
2022/06/20 06:22:48;;;;;;;15.95;3.78;;;;;;;15.55;100.00;101355.19;5009065;28;20034;-67
2022/06/20 06:25:35;;;;;;;15.70;3.60;;;;;;;15.60;100.00;101353.41;5001430;28;20089;-65
2022/06/20 06:28:12;;;;;;;15.65;3.50;;;;;;;15.59;100.00;101356.94;5008283;28;20026;-65
2022/06/20 06:30:45;;;;;;;16.23;3.63;;;;;;;15.59;100.00;101362.28;5008238;28;20591;-66
2022/06/20 06:33:22;;;;;;;16.08;3.60;;;;;;;15.60;100.00;101364.06;5005668;28;20118;-65
2022/06/20 06:36:02;;;;;;;14.75;3.33;;;;;;;15.67;100.00;101357.78;5008537;28;20053;-64
2022/06/20 06:38:35;;;;;;;14.07;3.00;;;;;;;15.55;100.00;101355.19;5008651;28;20034;-63
2022/06/20 06:41:06;;;;;;;18.15;3.45;;;;;;;15.48;100.00;101364.16;5008167;28;20037;-63
2022/06/20 06:43:38;;;;;;;14.98;3.50;;;;;;;15.42;100.00;101361.53;5008035;28;20038;-63
2022/06/20 06:46:10;;;;;;;16.27;3.50;;;;;;;15.39;100.00;101366.88;5008339;28;20424;-63
2022/06/20 06:48:51;;;;;;;12.07;3.30;;;;;;;15.50;100.00;101367.69;5016077;28;20489;-62
2022/06/20 06:51:25;;;;;;;15.60;3.20;;;;;;;15.43;100.00;101374.84;5048594;28;20049;-65
2022/06/20 06:54:00;;;;;;;15.82;3.45;;;;;;;15.56;100.00;101382.75;5052517;28;20021;-65
2022/06/20 06:56:34;;;;;;;14.43;3.10;;;;;;;15.53;100.00;101386.31;5053059;28;20144;-65
2022/06/20 06:59:13;;;;;;;14.57;3.22;;;;;;;15.65;100.00;101385.34;5054291;28;20028;-65
2022/06/20 07:02:11;;;;;;;15.02;3.45;;;;;;;16.00;100.00;101390.41;5051831;28;20033;-65
2022/06/20 07:04:48;;;;;;;13.77;3.30;;;;;;;16.23;100.00;101386.59;5052502;28;20484;-63
2022/06/20 07:07:34;;;;;;;15.90;3.28;;;;;;;16.46;100.00;101398.81;5052680;28;20025;-63
2022/06/20 07:10:00;;;;;;;17.30;3.60;;;;;;;16.52;100.00;101396.94;5054334;28;20033;-65
2022/06/20 07:12:50;;;;;;;13.98;3.53;;;;;;;16.54;100.00;101396.94;5054801;28;20066;-63
2022/06/20 07:15:19;;;;;;;14.82;3.30;;;;;;;16.47;100.00;101405.91;5053346;28;20373;-63
2022/06/20 07:17:50;;;;;;;15.38;3.47;;;;;;;16.32;100.00;101402.50;5054548;28;20131;-62
2022/06/20 07:20:17;;;;;;;15.77;3.70;;;;;;;16.00;100.00;101409.06;5045696;28;20025;-64
2022/06/20 07:22:45;;;;;;;18.55;4.07;;;;;;;15.72;100.00;101412.84;5052904;28;20123;-62
2022/06/20 07:25:18;;;;;;;15.68;3.95;;;;;;;15.51;100.00;101412.09;5055917;28;20499;-62
2022/06/20 07:27:49;;;;;;;18.55;4.10;;;;;;;15.37;100.00;101413.97;5048484;28;20426;-65
2022/06/20 07:30:20;;;;;;;18.50;4.70;;;;;;;15.36;100.00;101417.53;5050484;28;20030;-65
2022/06/20 07:32:51;;;;;;;18.00;4.28;;;;;;;15.33;100.00;101413.09;5053730;28;20029;-66
2022/06/20 07:35:49;;;;;;;16.30;3.63;;;;;;;15.48;100.00;101406.78;5054288;28;20523;-64
2022/06/20 07:38:22;;;;;;;14.45;3.53;;;;;;;15.92;100.00;101407.38;5052888;28;20041;-62
2022/06/20 07:40:52;;;;;;;12.93;3.40;;;;;;;16.56;100.00;101409.38;5053828;28;20392;-63
2022/06/20 07:43:26;;;;;;;17.92;3.90;;;;;;;17.03;96.78;101407.03;5053412;28;20033;-63
2022/06/20 07:45:55;;;;;;;14.95;3.40;;;;;;;17.33;93.22;101399.50;5050651;28;20446;-62
2022/06/20 07:48:38;;;;;;;12.60;3.20;;;;;;;17.52;92.14;101410.78;5053492;28;20573;-63
2022/06/20 07:51:15;;;;;;;15.75;3.33;;;;;;;17.67;88.97;101415.00;5052089;28;20079;-62
2022/06/20 07:53:50;;;;;;;14.02;3.40;;;;;;;17.89;86.08;101425.34;5053367;28;20167;-62
2022/06/20 07:56:21;;;;;;;15.00;3.30;;;;;;;17.93;83.56;101424.41;5052115;28;20025;-62
2022/06/20 07:58:54;;;;;;;16.33;3.30;;;;;;;17.54;82.01;101425.00;5053040;28;20488;-62
2022/06/20 08:01:30;;;;;;;13.77;3.28;;;;;;;17.02;84.70;101421.31;5049726;28;20017;-62
2022/06/20 08:04:01;;;;;;;14.32;3.40;;;;;;;16.73;83.73;101419.84;5047098;28;20079;-66
2022/06/20 08:06:33;;;;;;;13.40;3.30;;;;;;;16.63;84.23;101418.19;5053585;28;20036;-65
2022/06/20 08:09:07;;;;;;;12.93;3.33;;;;;;;16.70;82.55;101435.91;5052711;28;20029;-65
2022/06/20 08:11:43;;;;;;;13.68;3.38;;;;;;;16.83;80.73;101425.94;5052804;28;20031;-66
2022/06/20 08:14:25;;;;;;;15.20;3.33;;;;;;;17.23;79.87;101428.13;5052969;28;20105;-64
2022/06/20 08:16:53;;;;;;;;;;;;;;;17.77;81.15;101427.31;5051321;28;20021;-69
2022/06/20 08:19:19;;;;;;;13.10;3.40;;;;;;;18.20;76.91;101422.16;5050020;28;19912;-64
2022/06/20 08:21:49;;;;;;;15.43;3.50;;;;;;;18.79;74.50;101430.81;5051612;28;20081;-64
2022/06/20 08:24:22;;;;;;;16.13;3.70;;;;;;;19.24;73.34;101434.38;5048536;28;20033;-64
2022/06/20 08:27:09;;;;;;;15.68;3.50;;;;;;;19.64;74.20;101430.75;5049684;28;20073;-64
2022/06/20 08:29:45;;;;;;;15.68;3.67;;;;;;;19.28;70.26;101428.91;5051551;28;20045;-63
2022/06/20 08:32:20;;;;;;;11.93;3.47;;;;;;;19.17;71.12;101430.94;5049509;28;20494;-63
2022/06/20 08:35:34;;;;;;;15.70;3.58;;;;;;;19.10;72.71;101435.56;5050349;28;20028;-67
2022/06/20 08:38:19;;;;;;;14.10;3.90;;;;;;;18.76;73.85;101438.06;5009215;28;20045;-66
2022/06/20 08:40:54;;;;;;;17.88;4.13;;;;;;;18.40;73.26;101440.53;5008874;28;20033;-64
2022/06/20 08:43:31;;;;;;;15.70;4.10;;;;;;;18.19;76.27;101442.69;5009412;28;20093;-66
2022/06/20 08:46:08;;;;;;;15.65;3.80;;;;;;;18.31;75.70;101444.25;5009821;28;20208;-63
2022/06/20 08:48:54;;;;;;;14.40;3.60;;;;;;;18.35;70.93;101440.63;5010395;28;20038;-67
2022/06/20 08:52:07;;;;;;;13.27;3.70;;;;;;;18.15;73.29;101448.13;5009729;28;20037;-63
2022/06/20 08:54:57;;;;;;;15.40;3.90;;;;;;;18.39;73.05;101452.13;5010299;28;20058;-62
2022/06/20 08:57:30;;;;;;;17.70;3.80;;;;;;;19.01;71.78;101459.88;5009866;28;20132;-62
2022/06/20 09:00:17;;;;;;;18.23;3.92;;;;;;;19.00;68.46;101466.13;5009964;28;20582;-63
2022/06/20 09:02:59;;;;;;;17.75;3.72;;;;;;;18.85;71.11;101466.44;5007281;28;20041;-63
2022/06/20 09:05:40;;;;;;;18.38;3.88;;;;;;;18.64;69.22;101472.19;5010119;28;20064;-63
2022/06/20 09:08:21;;;;;;;17.13;3.60;;;;;;;18.54;71.09;101469.72;5009978;28;20034;-62
2022/06/20 09:10:47;;;;;;;18.37;3.90;;;;;;;18.39;71.17;101470.88;5009445;28;20036;-63
2022/06/20 09:13:18;;;;;;;15.70;3.92;;;;;;;18.86;71.44;101474.47;5015469;28;20029;-62
2022/06/20 09:15:47;;;;;;;15.70;3.63;;;;;;;19.07;69.04;101470.44;5051130;28;20040;-62
2022/06/20 09:18:35;;;;;;;17.08;3.60;;;;;;;19.71;65.39;101471.75;5052176;28;20025;-63
2022/06/20 09:21:13;;;;;;;15.38;3.88;;;;;;;20.38;64.04;101478.09;5051495;28;20035;-62
2022/06/20 09:24:01;;;;;;;13.15;3.53;;;;;;;20.44;64.37;101482.44;5053633;28;20472;-63
2022/06/20 09:26:33;;;;;;;15.52;3.85;;;;;;;20.66;64.21;101487.22;5051133;28;20033;-63
2022/06/20 09:29:11;;;;;;;15.63;3.80;;;;;;;20.93;65.18;101485.59;5053771;28;20441;-63
2022/06/20 09:31:43;;;;;;;13.77;3.70;;;;;;;20.78;61.87;101480.66;5053694;28;20029;-62
2022/06/20 09:34:26;;;;;;;15.03;3.93;;;;;;;20.80;61.48;101481.50;5053426;28;20383;-62
2022/06/20 09:37:18;;;;;;;14.70;3.47;;;;;;;20.82;60.82;101488.56;5049925;28;20729;-62
2022/06/20 09:39:55;;;;;;;17.52;4.00;;;;;;;20.76;60.11;101483.38;5052823;28;20036;-63
2022/06/20 09:42:30;;;;;;;15.15;3.53;;;;;;;20.71;52.33;101486.19;5049810;28;20036;-63
2022/06/20 09:45:07;;;;;;;15.85;3.45;;;;;;;20.79;55.88;101483.28;5049660;28;20090;-64
2022/06/20 09:48:05;;;;;;;15.13;3.60;;;;;;;20.61;53.90;101486.47;5053149;28;20021;-64
2022/06/20 09:50:48;;;;;;;16.38;3.70;;;;;;;20.82;56.03;101483.19;5050933;28;20418;-63
2022/06/20 09:53:23;;;;;;;17.02;3.80;;;;;;;20.93;55.04;101474.84;5053169;28;20032;-64
2022/06/20 09:56:07;;;;;;;17.23;3.83;;;;;;;20.84;54.14;101476.00;5053061;28;20570;-64
2022/06/20 09:58:38;;;;;;;15.48;4.18;;;;;;;21.00;54.11;101470.16;5050752;28;20542;-63
2022/06/20 10:01:21;;;;;;;17.92;3.83;;;;;;;21.24;53.59;101476.63;5053173;28;20491;-63
2022/06/20 10:03:57;;;;;;;19.15;4.28;;;;;;;21.50;51.69;101474.94;5052926;28;20029;-64
2022/06/20 10:06:38;;;;;;;17.73;4.22;;;;;;;22.16;50.41;101472.78;5049541;28;20116;-64
2022/06/20 10:09:33;;;;;;;17.08;4.25;;;;;;;22.29;49.49;101475.94;5050749;28;20484;-64
2022/06/20 10:12:36;;;;;;;17.23;4.03;;;;;;;24.05;43.37;101484.66;5050129;28;20040;-63
2022/06/20 10:15:10;;;;;;;18.05;4.00;;;;;;;25.40;37.72;101478.59;5050326;28;20442;-64
2022/06/20 10:17:54;;;;;;;16.13;4.00;;;;;;;26.24;36.14;101479.91;5053192;28;20104;-63
2022/06/20 10:20:44;;;;;;;16.77;3.97;;;;;;;27.77;33.93;101479.78;5049142;28;20025;-63
2022/06/20 10:23:27;;;;;;;15.27;4.00;;;;;;;29.54;31.38;101478.94;5051492;28;20025;-63
2022/06/20 10:26:31;;;;;;;16.95;4.00;;;;;;;30.63;30.21;101489.75;5049143;28;20024;-63
2022/06/20 10:29:24;;;;;;;17.15;3.95;;;;;;;30.13;29.79;101488.66;4999405;28;20069;-63
2022/06/20 10:32:11;;;;;;;16.33;3.90;;;;;;;29.82;30.33;101502.50;4995282;28;20038;-63
2022/06/20 10:35:17;;;;;;;15.15;3.80;;;;;;;28.53;31.56;101506.09;5001021;28;20029;-63
2022/06/20 10:38:03;;;;;;;16.40;3.83;;;;;;;28.61;30.83;101511.09;4944690;28;20111;-63
2022/06/20 10:40:34;;;;;;;15.90;3.80;;;;;;;29.19;28.96;101506.56;4944627;29;20050;-63
2022/06/20 10:43:26;;;;;;;16.20;3.70;;;;;;;29.02;27.96;101507.63;4943655;29;20047;-64
2022/06/20 10:46:19;;;;;;;13.37;3.67;;;;;;;29.07;28.78;101510.06;4938157;29;20060;-63
2022/06/20 10:49:22;;;;;;;16.42;3.90;;;;;;;29.67;28.60;101509.81;4944611;29;20093;-63
2022/06/20 10:51:56;;;;;;;14.95;3.20;;;;;;;27.48;30.45;101510.38;4906808;29;20081;-63
2022/06/20 10:54:22;;;;;;;15.18;3.72;;;;;;;25.63;33.48;101519.94;4905646;29;20032;-63
2022/06/20 10:57:02;;;;;;;13.38;3.40;;;;;;;26.26;31.95;101518.66;4902790;29;20040;-63
2022/06/20 10:59:44;;;;;;;14.63;3.63;;;;;;;25.33;32.96;101519.56;4907630;29;20077;-63
2022/06/20 11:02:15;;;;;;;15.50;3.45;;;;;;;26.72;31.18;101519.03;4888020;29;20051;-63
2022/06/20 11:05:12;;;;;;;14.35;3.45;;;;;;;28.13;29.82;101512.09;4901137;29;20159;-64
2022/06/20 11:07:45;;;;;;;17.80;3.90;;;;;;;28.59;29.37;101524.75;4890118;29;20049;-64
2022/06/20 11:10:26;;;;;;;13.00;3.78;;;;;;;26.62;31.11;101528.56;4885062;29;20028;-63
2022/06/20 11:13:00;;;;;;;15.00;3.70;;;;;;;25.50;33.61;101524.16;4890684;29;20044;-63
2022/06/20 11:15:47;;;;;;;16.75;4.00;;;;;;;25.53;33.93;101537.56;4959478;28;20046;-64
2022/06/20 11:18:42;;;;;;;17.13;3.83;;;;;;;24.97;33.54;101534.66;4971330;28;20038;-63
2022/06/20 11:21:31;;;;;;;16.05;3.88;;;;;;;24.18;36.73;101529.94;4970227;28;20030;-63
2022/06/20 11:24:18;;;;;;;17.75;3.70;;;;;;;25.91;35.31;101538.41;4971424;28;20486;-63
2022/06/20 11:27:14;;;;;;;16.67;3.47;;;;;;;26.27;32.89;101532.13;4989243;28;20041;-63
2022/06/20 11:29:48;;;;;;;16.80;3.70;;;;;;;24.67;35.22;101534.25;5049721;28;20529;-62
2022/06/20 11:32:19;;;;;;;16.98;3.80;;;;;;;23.14;37.98;101535.84;5052091;28;20032;-63
2022/06/20 11:34:50;;;;;;;17.55;3.83;;;;;;;22.61;38.09;101527.84;5051882;28;20472;-63
2022/06/20 11:37:34;;;;;;;17.80;3.80;;;;;;;22.48;38.48;101535.47;5052328;28;20029;-63
2022/06/20 11:40:36;;;;;;;17.05;3.70;;;;;;;23.11;38.25;101535.06;5051262;28;20090;-63
2022/06/20 11:43:51;;;;;;;15.77;3.45;;;;;;;27.19;32.53;101535.50;5052593;28;20037;-63
2022/06/20 11:46:26;;;;;;;17.75;3.80;;;;;;;29.12;27.00;101533.28;5054325;28;20135;-64
2022/06/20 11:49:05;;;;;;;16.80;3.80;;;;;;;28.56;28.34;101527.66;5055304;28;20519;-63
2022/06/20 11:51:33;;;;;;;15.85;3.70;;;;;;;26.32;30.86;101521.06;5052345;28;20037;-63
2022/06/20 11:54:33;;;;;;;14.43;3.58;;;;;;;25.00;34.77;101529.16;5055654;28;20100;-63
2022/06/20 11:57:30;;;;;;;15.48;3.72;;;;;;;24.39;35.00;101526.41;5025675;28;20034;-64
2022/06/20 12:00:12;;;;;;;18.85;3.70;;;;;;;26.70;32.88;101522.75;5033254;28;20033;-63
2022/06/20 12:02:37;;;;;;;17.52;3.65;;;;;;;29.25;28.18;101527.97;5030852;28;20033;-63
2022/06/20 12:05:17;;;;;;;12.00;3.17;;;;;;;29.35;28.56;101520.09;5033009;28;20040;-64